AGZ weather

Aggeneys Airport
Aggeneys, Northern Cape, South Africa

Public forecast

Using degrees Celsius for public forecast. Weather courtesy of forecast.io.

Closest aviation weather report (METAR) to Aggeneys Airport

Report is more than 6 hours old.

Closest report is Springbok Airport, 51.8 nm (96.0 km) WSW. Retrieved 2020/01/24 07:46 UTC (18 hours ago):

FASB 240746Z 25005KT 9999 FEW020 18/13 Q1015

Closest aviation forecast (TAF) to Aggeneys Airport

Forecast is more than 12 hours old.

Closest forecast is Alexander Bay Airport, 127.1 nm (235.4 km) WNW. Retrieved 2017/07/06 00:54 UTC (3 years ago):

TAF FAAB 062130Z 0700/0806 27012KT 9999 BKN030 SCT080 BECMG 0702/0705 14010KT 8000 -RA/BR BKN030 BKN 080 BECMG0710/0713 9000 -RA BKN025 BKN070